Time;durP1;ratioP1;P1;durP2;ratioP2;P2;SDS_P1;SDS_P2;PMS_P1;PMS_P2;Temp;Humidity;BMP_temperature;BMP_pressure;BME280_temperature;BME280_humidity;BME280_pressure;Samples;Min_cycle;Max_cycle;Signal;HPM_P1;HPM_P2
2021/10/02 00:37:50;;;;;;;27.98;18.92;;;;;;;6.16;67.69;101107.83;1694111;83;21476;-60
2021/10/02 00:45:30;;;;;;;25.02;17.42;;;;;;;6.10;68.24;101103.92;1700498;82;21781;-62
2021/10/02 00:47:57;;;;;;;;;;;;;;;6.22;68.15;101102.62;1702422;83;21536;-61
2021/10/02 00:50:24;;;;;;;26.48;18.05;;;;;;;6.19;68.04;101099.55;1694643;83;20201;-61
2021/10/02 00:52:51;;;;;;;24.23;17.82;;;;;;;6.13;67.84;101095.65;1703121;83;21585;-62
2021/10/02 00:55:17;;;;;;;28.07;18.90;;;;;;;6.10;67.70;101103.48;1700686;83;21436;-62
2021/10/02 00:57:44;;;;;;;28.12;18.90;;;;;;;6.06;67.67;101097.83;1703192;82;22035;-62
2021/10/02 01:00:12;;;;;;;23.40;17.52;;;;;;;6.01;67.86;101099.60;1702068;82;21597;-61
2021/10/02 01:03:14;;;;;;;29.15;18.98;;;;;;;5.99;67.81;101100.01;1697839;83;21676;-61
2021/10/02 01:06:12;;;;;;;22.42;16.65;;;;;;;5.95;67.74;101096.94;1695681;82;21570;-62
2021/10/02 01:08:47;;;;;;;32.10;18.07;;;;;;;6.00;68.15;101104.37;1698308;83;21511;-62
2021/10/02 01:11:31;;;;;;;24.63;17.98;;;;;;;6.10;68.11;101100.87;1702331;83;21785;-62
2021/10/02 01:14:17;;;;;;;29.30;18.12;;;;;;;6.08;68.08;101097.84;1694644;83;21447;-62
2021/10/02 01:16:48;;;;;;;27.30;19.55;;;;;;;6.05;68.08;101101.33;1701972;83;21500;-62
2021/10/02 01:19:45;;;;;;;25.92;19.40;;;;;;;6.01;68.04;101096.98;1702481;83;21590;-61
2021/10/02 01:23:09;;;;;;;35.43;19.02;;;;;;;5.94;68.13;101101.30;1696726;83;21571;-61
2021/10/02 01:26:04;;;;;;;22.75;17.10;;;;;;;5.86;68.41;101096.52;1728748;81;21562;-61
2021/10/02 01:28:35;;;;;;;26.42;18.35;;;;;;;5.91;68.91;101092.59;1721215;82;21463;-61
2021/10/02 01:47:32;;;;;;;32.53;18.75;;;;;;;5.81;69.15;101087.38;1727593;81;21483;-61
2021/10/02 01:49:59;;;;;;;31.27;19.55;;;;;;;5.94;69.19;101090.85;1725465;81;21495;-61
2021/10/02 01:52:35;;;;;;;29.80;18.50;;;;;;;5.95;69.26;101091.72;1699009;82;21915;-61
2021/10/02 01:55:05;;;;;;;33.60;18.92;;;;;;;5.91;69.11;101088.67;1729737;82;21417;-61
2021/10/02 01:57:38;;;;;;;27.45;17.77;;;;;;;5.88;68.95;101092.17;1726552;81;21578;-64
2021/10/02 02:00:08;;;;;;;35.58;18.92;;;;;;;5.84;68.90;101096.97;1728240;82;21487;-61
2021/10/02 02:02:37;;;;;;;26.82;18.40;;;;;;;5.79;68.68;101092.17;1726272;81;21575;-61
2021/10/02 02:05:05;;;;;;;26.00;16.45;;;;;;;5.71;68.66;101096.09;1729984;82;21456;-62
2021/10/02 02:07:32;;;;;;;22.93;15.23;;;;;;;5.72;68.98;101088.67;1721173;82;21460;-62
2021/10/02 02:09:58;;;;;;;32.95;17.48;;;;;;;5.82;69.05;101095.66;1730272;82;21011;-62
2021/10/02 02:12:33;;;;;;;24.30;16.65;;;;;;;5.82;68.85;101099.98;1729212;82;21582;-65
2021/10/02 02:15:08;;;;;;;38.53;18.35;;;;;;;5.77;68.83;101093.91;1691716;82;21011;-62
2021/10/02 02:17:40;;;;;;;28.20;18.77;;;;;;;5.72;68.90;101091.28;1718875;82;21711;-62
2021/10/02 02:20:08;;;;;;;26.95;18.40;;;;;;;5.68;68.73;101097.38;1729434;81;21633;-62
2021/10/02 02:22:35;;;;;;;32.60;19.48;;;;;;;5.62;69.02;101093.47;1729914;81;21550;-60
2021/10/02 02:25:04;;;;;;;29.20;18.50;;;;;;;5.58;69.20;101093.03;1705959;82;21049;-61
2021/10/02 02:27:31;;;;;;;29.65;17.62;;;;;;;5.62;69.90;101094.33;1667879;84;21542;-62
2021/10/02 02:29:58;;;;;;;26.40;17.70;;;;;;;5.78;70.01;101094.33;1643205;85;21797;-61
2021/10/02 02:32:25;;;;;;;30.27;18.30;;;;;;;5.82;69.82;101093.45;1653669;86;21030;-61
2021/10/02 02:34:51;;;;;;;25.12;17.00;;;;;;;5.79;69.73;101096.09;1667753;85;21629;-62
2021/10/02 02:37:18;;;;;;;25.30;17.42;;;;;;;5.74;69.57;101094.77;1678720;83;21700;-61
2021/10/02 02:39:46;;;;;;;31.25;19.27;;;;;;;5.70;69.48;101093.02;1704618;83;21526;-61
2021/10/02 02:42:13;;;;;;;30.63;18.07;;;;;;;5.65;69.43;101090.43;1705544;82;21806;-63
2021/10/02 02:44:39;;;;;;;24.90;17.05;;;;;;;5.60;69.51;101090.85;1678664;83;21502;-61
2021/10/02 02:47:09;;;;;;;29.30;18.15;;;;;;;5.62;69.77;101084.34;1704498;83;21510;-62
2021/10/02 02:49:51;;;;;;;25.45;16.97;;;;;;;5.76;69.93;101086.49;1704802;83;21510;-61
2021/10/02 02:52:24;;;;;;;34.25;18.27;;;;;;;5.80;69.84;101084.34;1703258;83;21533;-60
2021/10/02 02:55:03;;;;;;;24.12;17.73;;;;;;;5.79;69.82;101077.37;1699962;83;21882;-61
2021/10/02 02:57:42;;;;;;;31.07;21.02;;;;;;;5.78;69.84;101075.65;1694227;83;21427;-61
2021/10/02 03:00:14;;;;;;;25.88;18.90;;;;;;;5.77;69.81;101073.03;1668048;85;21548;-61
2021/10/02 03:02:50;;;;;;;25.48;18.52;;;;;;;5.74;69.88;101069.11;1652049;85;21064;-61
2021/10/02 03:05:18;;;;;;;25.95;18.05;;;;;;;5.71;69.87;101069.98;1647608;86;21604;-62
2021/10/02 03:08:08;;;;;;;23.73;17.45;;;;;;;5.79;70.07;101071.29;1653601;84;21740;-62
2021/10/02 03:10:37;;;;;;;26.05;18.48;;;;;;;5.91;70.16;101067.80;1652062;85;21522;-61
2021/10/02 03:13:09;;;;;;;28.07;17.85;;;;;;;5.93;69.95;101062.99;1667727;85;21602;-61
2021/10/02 03:15:36;;;;;;;25.05;18.65;;;;;;;5.89;70.04;101066.92;1665157;85;21527;-61
2021/10/02 03:18:04;;;;;;;31.12;19.98;;;;;;;5.87;70.08;101068.67;1665107;85;21538;-62
2021/10/02 03:20:31;;;;;;;33.10;20.50;;;;;;;5.84;70.12;101057.37;1701957;83;21691;-62
2021/10/02 03:22:59;;;;;;;28.77;20.30;;;;;;;5.82;69.87;101060.41;1666265;83;21426;-67
2021/10/02 03:25:27;;;;;;;25.75;18.17;;;;;;;5.78;69.74;101054.77;1707160;82;21630;-64
2021/10/02 03:27:55;;;;;;;24.92;17.55;;;;;;;5.81;70.04;101057.80;1713099;81;21717;-66
2021/10/02 03:30:21;;;;;;;30.75;18.67;;;;;;;5.93;70.05;101059.08;1724461;82;20943;-63
2021/10/02 03:32:51;;;;;;;27.80;19.70;;;;;;;5.94;69.91;101056.91;1720102;82;20950;-65
2021/10/02 03:37:56;;;;;;;27.27;19.95;;;;;;;5.91;69.92;101054.30;1776178;78;23924;-67
2021/10/02 03:40:23;;;;;;;30.80;20.83;;;;;;;5.82;69.64;101059.52;1722177;80;21583;-66
2021/10/02 03:42:55;;;;;;;37.80;22.48;;;;;;;5.75;69.82;101062.59;1735496;80;22048;-67
2021/10/02 03:45:26;;;;;;;23.70;18.27;;;;;;;5.69;69.86;101059.98;1731581;80;21459;-63
2021/10/02 03:47:53;;;;;;;28.55;17.85;;;;;;;5.70;70.20;101062.16;1739695;80;21498;-65
2021/10/02 03:50:20;;;;;;;28.17;19.32;;;;;;;5.82;70.29;101066.94;1730660;80;21490;-63
2021/10/02 03:52:47;;;;;;;32.08;19.77;;;;;;;5.81;70.42;101063.88;1739649;81;21408;-64
2021/10/02 03:55:16;;;;;;;30.80;21.05;;;;;;;5.80;70.66;101065.18;1734155;80;21778;-64
2021/10/02 03:57:43;;;;;;;27.80;20.70;;;;;;;5.78;70.75;101063.02;1742455;80;21562;-63
2021/10/02 04:00:10;;;;;;;28.95;20.32;;;;;;;5.76;70.60;101062.14;1730363;80;21088;-63
2021/10/02 04:02:39;;;;;;;29.90;21.27;;;;;;;5.72;70.63;101059.11;1743962;80;21276;-66
2021/10/02 04:05:08;;;;;;;29.70;19.12;;;;;;;5.64;70.63;101056.05;1731692;80;21604;-65
2021/10/02 04:07:35;;;;;;;32.50;18.75;;;;;;;5.69;70.93;101066.52;1726781;80;21574;-65
2021/10/02 04:10:05;;;;;;;31.60;19.15;;;;;;;5.79;71.18;101065.62;1734772;80;21645;-65
2021/10/02 04:12:34;;;;;;;28.50;19.75;;;;;;;5.79;71.10;101060.84;1740674;80;21526;-66
2021/10/02 04:15:01;;;;;;;31.03;19.93;;;;;;;5.76;71.12;101068.22;1740481;80;21502;-66
2021/10/02 04:17:28;;;;;;;37.08;20.77;;;;;;;5.74;71.07;101064.75;1734517;80;21648;-66
2021/10/02 04:19:54;;;;;;;28.30;20.12;;;;;;;5.73;71.13;101064.33;1731001;80;21753;-66
2021/10/02 04:22:23;;;;;;;26.07;18.48;;;;;;;5.71;71.13;101062.16;1730786;80;21443;-65
2021/10/02 04:24:50;;;;;;;25.88;18.55;;;;;;;5.74;71.34;101060.83;1733243;80;21554;-64
2021/10/02 04:27:16;;;;;;;28.70;19.27;;;;;;;5.88;71.58;101059.54;1743356;80;21629;-65
2021/10/02 04:29:45;;;;;;;27.98;19.00;;;;;;;5.92;71.60;101056.05;1736013;80;21435;-64
2021/10/02 04:32:11;;;;;;;33.23;21.35;;;;;;;5.92;71.89;101056.05;1726705;80;21503;-65
2021/10/02 04:34:40;;;;;;;32.73;21.07;;;;;;;5.93;72.02;101056.91;1729038;80;21478;-65
2021/10/02 04:37:06;;;;;;;31.48;19.70;;;;;;;5.96;71.96;101057.81;1716164;81;21488;-64
2021/10/02 04:39:34;;;;;;;27.58;19.42;;;;;;;5.96;72.04;101057.81;1728710;81;21082;-66
2021/10/02 04:42:01;;;;;;;32.63;19.93;;;;;;;6.04;72.32;101056.49;1726391;80;21156;-67
2021/10/02 04:44:29;;;;;;;27.62;18.85;;;;;;;6.19;72.28;101051.23;1717590;82;22269;-67
2021/10/02 04:46:56;;;;;;;30.27;19.23;;;;;;;6.26;72.04;101057.33;1718990;81;20939;-65
2021/10/02 04:49:23;;;;;;;32.50;18.75;;;;;;;6.26;71.96;101050.80;1726877;81;21610;-63
2021/10/02 04:51:50;;;;;;;29.45;20.72;;;;;;;6.26;71.79;101055.16;1715897;81;21550;-64
2021/10/02 04:54:18;;;;;;;29.82;20.52;;;;;;;6.26;71.67;101063.86;1722087;81;21599;-64
2021/10/02 04:56:45;;;;;;;27.55;18.55;;;;;;;6.26;71.63;101062.55;1723256;81;21915;-64
2021/10/02 04:59:12;;;;;;;27.90;18.70;;;;;;;6.33;71.78;101062.08;1715735;81;21570;-65
2021/10/02 05:01:39;;;;;;;34.47;19.50;;;;;;;6.47;71.88;101052.91;1729555;81;21401;-66
2021/10/02 05:04:08;;;;;;;28.47;20.70;;;;;;;6.52;71.69;101055.09;1722817;81;21167;-66
2021/10/02 05:06:35;;;;;;;32.33;19.47;;;;;;;6.52;71.86;101056.39;1713392;81;21570;-65
2021/10/02 05:09:04;;;;;;;25.52;19.90;;;;;;;6.54;71.90;101052.88;1726508;80;21531;-67
2021/10/02 05:11:31;;;;;;;32.15;21.23;;;;;;;6.58;71.93;101048.52;1726840;81;21621;-66
2021/10/02 05:13:58;;;;;;;29.18;20.15;;;;;;;6.58;71.98;101050.69;1717953;81;21038;-66
2021/10/02 05:16:25;;;;;;;27.55;19.40;;;;;;;6.67;72.22;101059.36;1722969;81;21503;-65
2021/10/02 05:18:52;;;;;;;29.18;20.55;;;;;;;6.82;72.27;101062.78;1719667;81;21463;-65
2021/10/02 05:21:20;;;;;;;26.07;20.70;;;;;;;6.90;72.15;101064.05;1729008;81;21820;-65
2021/10/02 05:23:47;;;;;;;29.07;20.40;;;;;;;6.94;72.03;101068.83;1726720;80;21569;-65
2021/10/02 05:26:14;;;;;;;29.23;21.73;;;;;;;6.97;71.97;101069.69;1710116;82;21463;-66
2021/10/02 05:28:41;;;;;;;34.03;22.55;;;;;;;7.02;71.85;101074.43;1720814;81;21519;-65
2021/10/02 05:31:07;;;;;;;27.10;19.85;;;;;;;7.05;71.77;101079.25;1713572;81;21602;-66
2021/10/02 05:33:34;;;;;;;28.60;19.50;;;;;;;7.13;71.73;101078.75;1725272;81;21765;-66
2021/10/02 05:36:00;;;;;;;26.82;20.10;;;;;;;7.29;71.53;101076.48;1718833;81;21015;-66
2021/10/02 05:38:27;;;;;;;27.50;20.97;;;;;;;7.37;71.45;101081.21;1720728;81;21546;-66
2021/10/02 05:40:55;;;;;;;31.05;21.82;;;;;;;7.41;71.23;101085.55;1711334;81;21578;-66
2021/10/02 05:43:22;;;;;;;32.27;22.30;;;;;;;7.45;70.91;101081.61;1722660;81;21425;-66
2021/10/02 05:45:49;;;;;;;27.60;21.62;;;;;;;7.46;70.72;101079.41;1720044;80;21728;-67
2021/10/02 05:48:16;;;;;;;29.27;21.23;;;;;;;7.49;70.63;101081.56;1720084;81;21526;-67
2021/10/02 05:50:45;;;;;;;27.60;19.43;;;;;;;7.51;70.43;101081.55;1716794;81;21405;-67
2021/10/02 05:53:12;;;;;;;28.80;18.65;;;;;;;7.58;70.55;101083.25;1714892;81;21523;-65
2021/10/02 05:55:39;;;;;;;26.95;20.00;;;;;;;7.72;70.45;101082.72;1726662;81;21588;-67
2021/10/02 05:58:06;;;;;;;24.40;19.40;;;;;;;7.81;69.98;101080.44;1722698;81;21618;-67
2021/10/02 06:00:34;;;;;;;29.67;21.37;;;;;;;7.81;69.98;101080.44;1714463;80;21002;-69
2021/10/02 06:03:02;;;;;;;22.15;17.90;;;;;;;7.83;69.82;101079.12;1729023;80;21046;-69
2021/10/02 06:05:29;;;;;;;29.72;20.32;;;;;;;7.86;69.67;101087.83;1715971;81;21018;-70
2021/10/02 06:07:57;;;;;;;26.90;19.27;;;;;;;7.89;69.35;101085.61;1728857;81;21589;-69
2021/10/02 06:10:25;;;;;;;33.00;19.65;;;;;;;7.93;69.23;101080.77;1711856;81;21673;-70
2021/10/02 06:12:54;;;;;;;;;;;;;;;7.98;69.02;101086.84;1729851;81;21523;-69
2021/10/02 06:15:22;;;;;;;23.15;17.98;;;;;;;8.07;69.37;101084.14;1716912;81;20448;-70
2021/10/02 06:17:52;;;;;;;24.37;18.48;;;;;;;8.27;69.23;101090.92;1718979;81;21646;-69
2021/10/02 06:20:21;;;;;;;27.75;19.05;;;;;;;8.37;69.27;101095.20;1712311;81;21429;-69
2021/10/02 06:22:48;;;;;;;25.45;19.10;;;;;;;8.40;69.16;101096.49;1710661;81;21777;-68
2021/10/02 06:25:16;;;;;;;26.40;18.30;;;;;;;8.44;69.06;101094.71;1725538;81;21520;-68
2021/10/02 06:27:44;;;;;;;26.35;18.37;;;;;;;8.47;68.99;101094.69;1717332;81;21476;-68
2021/10/02 06:30:11;;;;;;;27.37;20.37;;;;;;;8.50;68.78;101091.59;1718692;81;21535;-69
2021/10/02 06:32:39;;;;;;;25.27;19.12;;;;;;;8.55;68.54;101098.98;1711156;82;21657;-69
2021/10/02 06:35:07;;;;;;;25.62;18.02;;;;;;;8.62;68.61;101093.66;1712643;81;21826;-70
2021/10/02 06:37:34;;;;;;;24.80;18.85;;;;;;;8.72;68.72;101092.22;1714166;81;21420;-68
2021/10/02 06:40:04;;;;;;;26.73;18.80;;;;;;;8.90;68.64;101095.05;1712443;81;21574;-68
2021/10/02 06:42:32;;;;;;;26.48;19.75;;;;;;;9.00;68.47;101093.16;1716636;81;21467;-69
2021/10/02 06:44:58;;;;;;;27.50;19.05;;;;;;;9.08;68.39;101095.69;1713772;81;21499;-69
2021/10/02 06:47:25;;;;;;;24.55;19.10;;;;;;;9.12;68.37;101093.47;1717960;81;21501;-69
2021/10/02 06:49:57;;;;;;;29.10;20.65;;;;;;;9.20;68.20;101095.98;1722290;81;21058;-69
2021/10/02 06:52:28;;;;;;;26.77;21.25;;;;;;;9.26;68.12;101094.13;1709068;82;21559;-69
2021/10/02 06:54:55;;;;;;;31.70;19.32;;;;;;;9.34;68.38;101095.32;1716981;82;21065;-70
2021/10/02 06:57:22;;;;;;;;;;;;;;;9.46;68.74;101095.61;1710548;80;21113;-69
2021/10/02 06:59:49;;;;;;;27.20;20.02;;;;;;;9.64;68.58;101093.12;1717756;81;21800;-69
2021/10/02 07:02:17;;;;;;;29.70;19.60;;;;;;;9.70;68.41;101093.02;1722235;81;21404;-69
2021/10/02 07:04:48;;;;;;;27.98;20.23;;;;;;;9.77;68.30;101088.55;1728122;81;21091;-70
2021/10/02 07:07:13;;;;;;;27.87;20.25;;;;;;;9.88;68.29;101097.98;1733177;81;21697;-70
2021/10/02 07:09:40;;;;;;;26.02;20.25;;;;;;;9.99;68.24;101095.17;1723307;81;21006;-71
2021/10/02 07:12:07;;;;;;;26.23;20.12;;;;;;;10.08;68.28;101088.91;1718529;81;21475;-71
2021/10/02 07:14:35;;;;;;;32.23;20.92;;;;;;;10.17;67.87;101093.11;1721560;81;21010;-70
2021/10/02 07:17:03;;;;;;;26.62;19.07;;;;;;;10.22;67.49;101090.81;1709789;81;21526;-70
2021/10/02 07:19:31;;;;;;;25.35;19.00;;;;;;;10.32;67.74;101090.23;1713111;81;21488;-69
2021/10/02 07:21:58;;;;;;;28.42;19.12;;;;;;;10.54;67.49;101085.89;1719986;81;21044;-69
2021/10/02 07:24:24;;;;;;;30.95;20.15;;;;;;;10.65;67.41;101079.52;1713859;81;21820;-69
2021/10/02 07:26:51;;;;;;;29.32;20.30;;;;;;;10.75;67.02;101077.55;1717555;80;21448;-68
2021/10/02 07:29:18;;;;;;;25.88;20.08;;;;;;;10.87;66.79;101073.83;1718910;81;21582;-69
2021/10/02 07:31:48;;;;;;;27.15;20.12;;;;;;;10.97;66.63;101075.34;1722033;81;21629;-67
2021/10/02 07:34:14;;;;;;;24.95;19.25;;;;;;;11.05;65.90;101077.80;1726335;81;21435;-71
2021/10/02 07:36:42;;;;;;;32.05;19.45;;;;;;;11.12;65.36;101075.92;1719374;81;21539;-71
2021/10/02 07:39:10;;;;;;;25.82;17.60;;;;;;;11.17;65.24;101073.59;1726288;80;21521;-70
2021/10/02 07:41:44;;;;;;;27.95;18.40;;;;;;;11.22;64.80;101069.53;1734108;80;21416;-72
2021/10/02 07:44:11;;;;;;;26.90;17.55;;;;;;;11.32;64.76;101068.44;1737274;80;21624;-70
2021/10/02 07:46:43;;;;;;;19.32;15.78;;;;;;;11.43;64.50;101076.06;1731764;80;21539;-69
2021/10/02 07:49:10;;;;;;;20.40;14.85;;;;;;;11.54;64.26;101065.28;1728515;80;21526;-72
2021/10/02 07:51:38;;;;;;;19.87;15.40;;;;;;;11.71;64.43;101067.50;1722372;80;21535;-71
2021/10/02 07:54:06;;;;;;;19.30;15.08;;;;;;;11.94;63.71;101066.95;1740268;80;20995;-74
2021/10/02 07:56:36;;;;;;;22.98;15.70;;;;;;;12.10;63.49;101067.43;1743957;80;21603;-71
2021/10/02 07:59:06;;;;;;;22.70;17.40;;;;;;;12.22;62.56;101069.72;1728408;80;26538;-71
2021/10/02 08:01:36;;;;;;;23.00;16.57;;;;;;;12.34;62.12;101069.41;1731862;80;21451;-67
2021/10/02 08:04:07;;;;;;;21.50;15.65;;;;;;;12.46;62.16;101062.45;1739181;80;21383;-71
2021/10/02 08:06:36;;;;;;;24.50;17.07;;;;;;;12.55;61.52;101064.44;1734714;80;21550;-72
2021/10/02 08:09:05;;;;;;;21.12;16.20;;;;;;;12.65;61.23;101064.58;1730432;80;21399;-71
2021/10/02 08:11:34;;;;;;;23.12;15.60;;;;;;;12.74;60.85;101064.77;1729968;80;21396;-71
2021/10/02 08:14:06;;;;;;;20.17;15.48;;;;;;;12.81;60.85;101062.38;1726388;80;21431;-72
2021/10/02 08:16:31;;;;;;;21.27;16.17;;;;;;;12.90;60.20;101062.06;1722436;80;21504;-72
2021/10/02 08:19:00;;;;;;;19.52;15.98;;;;;;;12.96;59.98;101063.23;1736360;80;21590;-72
2021/10/02 08:21:29;;;;;;;23.27;14.80;;;;;;;13.02;59.41;101058.22;1745706;80;21569;-73
2021/10/02 08:23:56;;;;;;;20.40;12.93;;;;;;;13.10;59.10;101049.59;1727671;80;21482;-74
2021/10/02 08:26:22;;;;;;;15.88;11.63;;;;;;;13.19;58.43;101051.09;1725123;80;22079;-72
2021/10/02 08:28:51;;;;;;;15.72;11.30;;;;;;;13.27;57.50;101053.50;1735516;80;21534;-71
2021/10/02 08:31:22;;;;;;;13.43;11.08;;;;;;;13.33;57.03;101053.33;1740652;80;21091;-71
2021/10/02 08:33:50;;;;;;;15.32;11.63;;;;;;;13.11;56.67;101000.28;1728906;81;21494;-72
2021/10/02 08:36:17;;;;;;;17.75;10.68;;;;;;;13.53;56.25;101061.48;1735697;80;21459;-73
2021/10/02 08:38:45;;;;;;;14.83;11.80;;;;;;;13.63;55.63;101065.53;1718652;80;21789;-72
2021/10/02 08:41:11;;;;;;;17.90;11.75;;;;;;;13.69;55.01;101064.47;1717677;81;21499;-72
2021/10/02 08:43:38;;;;;;;22.25;11.80;;;;;;;13.76;54.58;101058.06;1712537;80;21558;-71
2021/10/02 08:46:07;;;;;;;22.52;11.38;;;;;;;13.83;54.30;101053.45;1699286;82;21046;-71
2021/10/02 08:48:35;;;;;;;17.20;11.40;;;;;;;13.90;54.14;101050.13;1688526;82;21629;-73
2021/10/02 08:51:03;;;;;;;18.37;11.60;;;;;;;13.98;53.67;101047.63;1708059;81;21765;-68
2021/10/02 08:53:33;;;;;;;17.45;11.68;;;;;;;14.07;53.43;101050.43;1712460;80;21438;-75
2021/10/02 08:56:02;;;;;;;15.38;11.40;;;;;;;14.04;53.22;101033.80;1719626;80;21526;-70
2021/10/02 08:58:30;;;;;;;11.97;10.13;;;;;;;14.18;53.16;101043.41;1709782;81;21531;-70
2021/10/02 09:01:00;;;;;;;15.70;10.32;;;;;;;14.28;52.69;101043.52;1724385;80;21118;-71
2021/10/02 09:03:27;;;;;;;12.05;10.65;;;;;;;14.37;52.56;101040.97;1716410;81;21586;-71
2021/10/02 09:05:54;;;;;;;13.87;9.83;;;;;;;14.54;51.48;101031.09;1719169;81;21424;-71
2021/10/02 09:08:21;;;;;;;12.18;9.20;;;;;;;14.54;51.48;101031.09;1719118;81;21988;-72
2021/10/02 09:10:50;;;;;;;10.72;8.48;;;;;;;14.60;51.14;101034.89;1709084;81;21589;-72
2021/10/02 09:13:17;;;;;;;14.55;8.75;;;;;;;14.66;51.16;101034.65;1681654;82;21460;-71
2021/10/02 09:15:44;;;;;;;11.63;8.58;;;;;;;14.75;50.56;101030.33;1695652;82;21860;-71
2021/10/02 09:18:12;;;;;;;10.95;8.85;;;;;;;14.87;50.59;101032.96;1680775;83;21069;-71
2021/10/02 09:20:40;;;;;;;;;;;;;;;14.94;50.35;101028.30;1686613;82;21558;-72
2021/10/02 09:23:08;;;;;;;10.00;6.60;;;;;;;15.01;49.60;101021.81;1674317;83;20470;-72
2021/10/02 09:25:42;;;;;;;7.45;6.10;;;;;;;15.09;49.53;101018.90;1663962;83;21450;-70
2021/10/02 09:28:14;;;;;;;8.85;5.53;;;;;;;15.17;49.00;101020.77;1639457;85;21746;-69
2021/10/02 09:30:44;;;;;;;10.05;4.87;;;;;;;15.26;48.74;101021.72;1708001;81;21503;-69
2021/10/02 09:33:20;;;;;;;9.85;5.53;;;;;;;15.35;47.69;101016.49;1726625;82;21531;-71
2021/10/02 09:35:50;;;;;;;7.75;5.37;;;;;;;15.41;47.07;101014.05;1723358;81;21037;-71
2021/10/02 09:38:19;;;;;;;7.00;5.83;;;;;;;15.44;47.08;101012.14;1723965;80;21566;-66
2021/10/02 09:40:58;;;;;;;10.78;5.95;;;;;;;15.53;47.18;101005.14;1710369;81;21615;-68
2021/10/02 09:43:26;;;;;;;10.50;6.10;;;;;;;15.62;46.67;101002.58;1696536;81;21475;-65
2021/10/02 09:46:01;;;;;;;9.25;6.10;;;;;;;15.69;46.48;101000.51;1688310;82;21416;-67
2021/10/02 09:48:31;;;;;;;12.67;6.63;;;;;;;15.45;46.18;100946.30;1679321;82;21606;-65
2021/10/02 09:51:07;;;;;;;9.85;5.37;;;;;;;15.82;45.63;100993.78;1692460;82;21734;-67
2021/10/02 09:53:40;;;;;;;7.75;5.37;;;;;;;15.87;45.64;100994.45;1688296;82;21507;-67
2021/10/02 09:56:09;;;;;;;13.25;6.37;;;;;;;15.95;45.77;100992.79;1722536;80;21452;-70
2021/10/02 09:58:38;;;;;;;10.95;6.33;;;;;;;16.02;45.72;100988.95;1693114;82;21416;-65
2021/10/02 10:01:08;;;;;;;13.68;6.20;;;;;;;16.08;45.73;100983.36;1695985;82;21463;-67
2021/10/02 10:03:45;;;;;;;9.60;6.40;;;;;;;16.13;45.83;100984.50;1700085;81;21452;-66
2021/10/02 10:06:24;;;;;;;9.80;5.90;;;;;;;16.22;45.54;100985.86;1725496;81;21865;-66
2021/10/02 10:09:12;;;;;;;8.78;5.62;;;;;;;16.31;44.91;100984.12;1722580;80;21475;-64
2021/10/02 10:11:49;;;;;;;8.85;5.05;;;;;;;16.39;44.76;100971.82;1721052;80;21566;-64
2021/10/02 10:14:25;;;;;;;9.43;4.95;;;;;;;16.48;44.51;100975.39;1719818;81;21472;-62
2021/10/02 10:16:56;;;;;;;;;;;;;;;16.57;44.12;100974.11;1721285;81;21590;-65
2021/10/02 10:19:30;;;;;;;9.05;5.33;;;;;;;16.57;43.40;100968.32;1721630;81;22227;-64
2021/10/02 10:22:18;;;;;;;11.45;4.97;;;;;;;16.54;43.71;100969.34;1721174;81;21550;-65
2021/10/02 10:24:55;;;;;;;10.05;5.55;;;;;;;16.54;43.57;100968.48;1708929;82;21111;-63
2021/10/02 10:27:41;;;;;;;8.13;4.80;;;;;;;16.59;43.59;100962.47;1720405;81;21527;-63
2021/10/02 10:30:18;;;;;;;6.75;4.33;;;;;;;16.66;43.17;100959.93;1713817;80;21543;-62
2021/10/02 10:33:04;;;;;;;5.65;4.25;;;;;;;16.72;42.87;100952.98;1720226;80;21531;-63
2021/10/02 10:35:40;;;;;;;9.13;5.03;;;;;;;16.77;42.54;100951.94;1723492;81;21440;-67
2021/10/02 10:38:10;;;;;;;9.00;4.12;;;;;;;16.81;42.23;100946.86;1717215;80;21563;-65
2021/10/02 10:40:38;;;;;;;5.97;4.28;;;;;;;16.85;42.53;100944.00;1731217;80;21577;-66
2021/10/02 10:43:04;;;;;;;7.60;4.53;;;;;;;16.91;42.27;100945.06;1733107;80;21768;-64
2021/10/02 10:45:31;;;;;;;8.18;4.40;;;;;;;16.97;42.11;100938.59;1729224;80;21721;-65
2021/10/02 10:47:58;;;;;;;8.95;4.50;;;;;;;17.08;41.95;100944.23;1730646;80;21550;-64
2021/10/02 10:50:27;;;;;;;7.55;4.85;;;;;;;17.17;41.46;100940.72;1727026;80;21218;-65
2021/10/02 10:52:56;;;;;;;5.78;4.58;;;;;;;17.21;41.47;100934.31;1692919;82;21490;-65
2021/10/02 10:55:23;;;;;;;8.53;4.83;;;;;;;17.25;41.41;100935.42;1668390;83;21477;-65
2021/10/02 10:57:52;;;;;;;8.85;5.00;;;;;;;17.29;41.14;100934.33;1688648;82;21831;-65
2021/10/02 11:00:33;;;;;;;6.42;4.80;;;;;;;17.30;41.24;100929.39;1693012;82;21005;-65
2021/10/02 11:03:07;;;;;;;6.70;5.15;;;;;;;17.38;41.38;100934.79;1721858;81;21054;-64
2021/10/02 11:05:43;;;;;;;7.72;5.37;;;;;;;17.45;41.25;100929.55;1692324;83;21432;-63
2021/10/02 11:08:16;;;;;;;;;;;;;;;17.50;40.56;100928.38;1694300;83;21493;-63
2021/10/02 11:10:48;;;;;;;6.97;4.97;;;;;;;17.49;40.24;100923.98;1684752;84;21837;-64
2021/10/02 11:13:36;;;;;;;5.47;4.60;;;;;;;17.49;40.46;100926.65;1678029;84;21566;-64
2021/10/02 11:16:31;;;;;;;8.33;4.47;;;;;;;17.49;40.04;100917.34;1728938;82;21456;-64
2021/10/02 11:18:57;;;;;;;8.00;4.40;;;;;;;17.54;39.86;100922.44;1726107;80;21574;-63
2021/10/02 11:21:29;;;;;;;7.25;4.30;;;;;;;17.56;39.39;100918.37;1694169;82;21562;-64
2021/10/02 11:24:11;;;;;;;5.58;4.10;;;;;;;17.56;39.43;100915.72;1688588;83;22301;-64
2021/10/02 11:26:45;;;;;;;6.15;4.58;;;;;;;17.60;39.35;100910.63;1702980;83;21199;-64
2021/10/02 11:29:23;;;;;;;7.80;4.30;;;;;;;17.63;39.32;100905.13;1696621;83;21482;-64
2021/10/02 11:31:58;;;;;;;8.68;4.35;;;;;;;17.55;38.83;100902.02;1711287;82;21432;-63
2021/10/02 11:34:25;;;;;;;4.50;4.10;;;;;;;17.55;39.29;100904.67;1723072;79;21483;-64
2021/10/02 11:36:56;;;;;;;7.00;4.53;;;;;;;17.60;39.93;100896.85;1686624;83;21859;-64
2021/10/02 11:39:30;;;;;;;6.90;4.90;;;;;;;17.67;39.72;100894.27;1727961;80;21518;-64
2021/10/02 11:42:12;;;;;;;10.80;4.67;;;;;;;17.72;39.03;100894.01;1721681;81;21451;-63
2021/10/02 11:44:49;;;;;;;6.20;4.55;;;;;;;17.76;38.71;100901.36;1715584;80;21568;-63
2021/10/02 11:47:35;;;;;;;5.00;4.50;;;;;;;17.73;38.76;100888.24;1727346;81;20970;-63
2021/10/02 11:50:19;;;;;;;6.70;4.55;;;;;;;17.77;38.82;100884.00;1718946;80;21753;-63
2021/10/02 11:52:54;;;;;;;4.45;4.05;;;;;;;17.85;38.67;100883.62;1696559;82;21503;-63
2021/10/02 11:55:44;;;;;;;8.00;4.80;;;;;;;17.90;38.56;100881.58;1685985;82;21431;-64
2021/10/02 11:58:13;;;;;;;8.53;5.10;;;;;;;17.95;38.34;100885.30;1691231;84;21510;-63
2021/10/02 12:00:51;;;;;;;7.30;4.90;;;;;;;17.97;38.54;100884.30;1683656;82;21059;-61
2021/10/02 12:03:31;;;;;;;7.03;4.87;;;;;;;18.03;38.12;100877.78;1682630;84;21530;-62
2021/10/02 12:06:01;;;;;;;7.28;4.45;;;;;;;18.06;37.99;100879.81;1688069;82;21029;-63
2021/10/02 12:08:31;;;;;;;6.22;4.50;;;;;;;18.11;38.12;100880.03;1688606;82;21590;-63
2021/10/02 12:11:07;;;;;;;9.73;4.80;;;;;;;18.24;38.08;100877.92;1695563;83;21890;-63
2021/10/02 12:13:39;;;;;;;7.95;4.70;;;;;;;18.33;37.98;100876.57;1689708;84;21514;-63
2021/10/02 12:16:13;;;;;;;5.33;4.70;;;;;;;18.43;37.71;100874.25;1668608;83;21837;-63
2021/10/02 12:18:55;;;;;;;9.48;5.10;;;;;;;18.53;37.24;100875.91;1669216;83;21557;-63
2021/10/02 12:21:31;;;;;;;5.65;4.47;;;;;;;18.61;36.87;100875.88;1666865;83;21572;-62
2021/10/02 12:24:15;;;;;;;7.62;5.05;;;;;;;18.77;36.86;100863.01;1673488;84;21614;-62
2021/10/02 12:26:59;;;;;;;8.10;5.35;;;;;;;18.96;36.53;100866.83;1663335;83;21535;-63
2021/10/02 12:29:33;;;;;;;11.60;4.90;;;;;;;19.19;36.30;100871.67;1671197;83;21563;-62
2021/10/02 12:32:09;;;;;;;6.42;4.85;;;;;;;19.39;35.61;100864.28;1672182;83;21014;-62
2021/10/02 12:34:46;;;;;;;11.20;5.28;;;;;;;19.57;35.36;100865.83;1679185;83;21540;-63
2021/10/02 12:37:23;;;;;;;7.17;4.83;;;;;;;19.80;34.93;100866.27;1669526;83;27628;-62